A- A+ FrançaisEnglishEspañol中国

最近的 MMMD MeridaLFBT Tarbes-Lourdes-PyrénéesEDMO OberpfaffenhofenKCEV MettelVNSB SyanbocheKNEW Lakefront

飞行员的航空天气,使用METAR(气象机场报告)进行的飞行准备和TAF(终端机场预报:针对以下情况的短期天气预报)航空)。 以及其他资源,例如VAC(目视进近图)和NOTAM(通知飞行员)以进行预试飞行.

METAR, TAF, VAC, NOTAM Metter Mun机场 (美国) / OACI KMHP

它位于附近 Metter, Metter 在 3.1 km, Twin City 在 24 km, Claxton 在 29 km, Statesboro 在 29 km, Lyons 在 30 km, Northpoint Mobile Home Park 在 31 km, Reidsville 在 32 km, Santa Claus 在 33 km, Swainsboro 在 34 km, Vidalia 在 36 km,

机场的高度为 Metter Mun机场的

60 m = 197 ft

附近的机场Metter Mun机场的

跑道 Metter Mun机场的

目前的天气 Metter Mun机场的 - KMHP

ciel dégagé
17°C

Vent 6 km/h

可提供5天天气预报 Metter 在 3.1 km, Twin City 在 24 km, Claxton 在 29 km, Statesboro 在 29 km, Lyons 在 30 km, Northpoint Mobile Home Park 在 31 km, Reidsville 在 32 km, Santa Claus 在 33 km, Swainsboro 在 34 km, Vidalia 在 36 km,

METAR Metter Mun机场的 - KMHP

KMHP 180555Z AUTO 13003KT 10SM CLR 17/16 A3007 RMK AO2 T01740163 10221 20173

Metter Mun机场METAR解码 (美国)

KMHP机场发行的METAR日期2020年06月18日至05:55 GMT. 这是一个自动生成的METAR, 警告:此METAR已过期, 已于 15 天 16 小时 30 分钟.

可见度为16.1 km = 10 sm.

温度为17°C = 63 °F 露点为16°C = 61 °F 。 这相当于94%的相对湿度。.

QNH是1018 hPa = 30.06 inHg

的风3 kt = 6 km/h, 风向为130°.

天空晴朗

备注 AO2 T01740163 10221 20173

TAF Metter Mun机场的 - KMHP

没有TAF

Metter Mun机场的NOTAM

提供的NOTAM不能保证其时事性。 在将其用于飞行准备或在飞行期间使用之前,飞行员是唯一负责验证其有效性的人员。

没有通知

数据源